createdAt,value
2018-11-26T00:01:08.346Z,4.79
2018-11-26T00:03:36.805Z,4.77
2018-11-26T00:06:05.094Z,4.71
2018-11-26T00:08:33.110Z,4.66
2018-11-26T00:11:44.887Z,4.62
2018-11-26T00:14:12.898Z,4.72
2018-11-26T00:16:40.980Z,4.72
2018-11-26T00:19:08.968Z,4.70
2018-11-26T00:21:36.990Z,4.75
2018-11-26T00:24:05.056Z,4.78
2018-11-26T00:26:33.102Z,4.76
2018-11-26T00:29:01.099Z,4.80
2018-11-26T00:31:29.129Z,4.92
2018-11-26T00:33:57.135Z,4.73
2018-11-26T00:36:25.129Z,4.84
2018-11-26T00:38:53.148Z,4.60
2018-11-26T00:41:21.141Z,4.55
2018-11-26T00:43:49.146Z,4.60
2018-11-26T00:46:17.189Z,4.58
2018-11-26T00:48:45.209Z,4.55
2018-11-26T00:51:13.217Z,4.46
2018-11-26T00:53:41.285Z,4.38
2018-11-26T00:56:09.285Z,4.32
2018-11-26T00:58:37.290Z,4.30
2018-11-26T01:01:05.658Z,4.37
2018-11-26T01:03:33.693Z,4.31
2018-11-26T01:06:01.696Z,4.37
2018-11-26T01:08:29.793Z,4.34
2018-11-26T01:10:57.801Z,4.33
2018-11-26T01:13:25.856Z,4.46
2018-11-26T01:15:53.930Z,4.40
2018-11-26T01:18:21.993Z,4.33
2018-11-26T01:20:50.098Z,4.34
2018-11-26T01:23:18.101Z,4.38
2018-11-26T01:25:46.266Z,4.42
2018-11-26T01:28:14.304Z,4.47
2018-11-26T01:30:42.319Z,4.60
2018-11-26T01:33:10.318Z,4.58
2018-11-26T01:35:38.318Z,4.54
2018-11-26T01:38:06.329Z,4.55
2018-11-26T01:40:39.838Z,4.46
2018-11-26T01:43:07.853Z,4.35
2018-11-26T01:45:36.073Z,4.37
2018-11-26T01:48:04.093Z,4.37
2018-11-26T01:50:32.090Z,4.29
2018-11-26T01:53:00.118Z,4.38
2018-11-26T01:55:28.121Z,4.38
2018-11-26T01:57:56.149Z,4.32
2018-11-26T02:00:25.458Z,4.33
2018-11-26T02:02:53.736Z,4.29
2018-11-26T02:05:21.768Z,4.31
2018-11-26T02:07:49.767Z,4.22
2018-11-26T02:10:19.051Z,4.25
2018-11-26T02:12:47.130Z,4.20
2018-11-26T02:15:26.625Z,4.14
2018-11-26T02:17:54.685Z,4.13
2018-11-26T02:20:22.829Z,4.09
2018-11-26T02:22:50.857Z,4.14
2018-11-26T02:25:18.870Z,4.20
2018-11-26T02:27:46.913Z,4.16
2018-11-26T02:30:14.985Z,4.06
2018-11-26T02:32:43.008Z,4.03
2018-11-26T02:35:11.046Z,3.92
2018-11-26T02:37:39.052Z,3.90
2018-11-26T02:40:09.396Z,3.94
2018-11-26T02:42:37.397Z,3.99
2018-11-26T02:45:06.014Z,4.03
2018-11-26T02:47:34.018Z,3.98
2018-11-26T02:50:02.146Z,4.02
2018-11-26T02:52:30.193Z,4.07
2018-11-26T02:54:58.314Z,4.11
2018-11-26T02:57:26.333Z,4.08
2018-11-26T02:59:54.341Z,4.08
2018-11-26T03:02:22.389Z,4.05
2018-11-26T03:04:50.449Z,4.21
2018-11-26T03:07:18.472Z,4.23
2018-11-26T03:09:46.516Z,4.31
2018-11-26T03:12:14.521Z,4.28
2018-11-26T03:14:42.538Z,4.35
2018-11-26T03:17:10.541Z,4.43
2018-11-26T03:19:38.686Z,4.30
2018-11-26T03:22:06.754Z,4.33
2018-11-26T03:24:34.821Z,4.31
2018-11-26T03:27:02.997Z,4.34
2018-11-26T03:29:31.070Z,4.44
2018-11-26T03:31:59.263Z,4.29
2018-11-26T03:34:27.273Z,4.28
2018-11-26T03:36:55.265Z,4.18
2018-11-26T03:39:23.305Z,4.13
2018-11-26T03:41:51.325Z,4.17
2018-11-26T03:44:19.313Z,4.26
2018-11-26T03:46:47.310Z,4.14
2018-11-26T03:49:15.322Z,4.18
2018-11-26T03:51:43.320Z,4.18
2018-11-26T03:54:11.330Z,4.19
2018-11-26T03:56:39.362Z,4.12
2018-11-26T03:59:07.388Z,4.17
2018-11-26T04:01:35.458Z,4.10
2018-11-26T04:04:03.513Z,4.19
2018-11-26T04:06:31.607Z,4.19
2018-11-26T04:08:59.610Z,4.16
2018-11-26T04:11:27.636Z,3.98
2018-11-26T04:13:55.709Z,3.98
2018-11-26T04:16:23.792Z,4.00
2018-11-26T04:18:51.791Z,3.92
2018-11-26T04:21:19.853Z,3.89
2018-11-26T04:23:47.882Z,3.85
2018-11-26T04:26:15.946Z,3.79
2018-11-26T04:28:43.965Z,3.71
2018-11-26T04:31:11.985Z,3.73
2018-11-26T04:33:39.981Z,3.64
2018-11-26T04:36:07.989Z,3.58
2018-11-26T04:38:35.990Z,3.67
2018-11-26T04:41:03.985Z,3.64
2018-11-26T04:43:31.986Z,3.67
2018-11-26T04:46:00.025Z,3.67
2018-11-26T04:48:28.106Z,3.62
2018-11-26T04:50:56.119Z,3.63
2018-11-26T04:53:24.121Z,3.66
2018-11-26T04:55:52.149Z,3.64
2018-11-26T04:58:20.161Z,3.56
2018-11-26T05:00:48.151Z,3.61
2018-11-26T05:03:16.199Z,3.50
2018-11-26T05:05:44.213Z,3.53
2018-11-26T05:08:12.205Z,3.56
2018-11-26T05:10:40.216Z,3.47
2018-11-26T05:13:08.223Z,3.41
2018-11-26T05:15:36.241Z,3.48
2018-11-26T05:18:04.432Z,3.57
2018-11-26T05:20:32.518Z,3.54
2018-11-26T05:23:00.528Z,3.45
2018-11-26T05:25:28.526Z,3.37
2018-11-26T05:27:56.518Z,3.39
2018-11-26T05:30:24.525Z,3.29
2018-11-26T05:32:52.520Z,3.23
2018-11-26T05:35:20.517Z,3.22
2018-11-26T05:37:48.509Z,3.30
2018-11-26T05:40:16.513Z,3.20
2018-11-26T05:42:44.613Z,3.09
2018-11-26T05:45:13.981Z,3.02
2018-11-26T05:47:41.963Z,2.89
2018-11-26T05:50:11.144Z,2.92
2018-11-26T05:52:39.796Z,2.92
2018-11-26T05:55:09.773Z,2.83
2018-11-26T05:57:37.776Z,2.72
2018-11-26T06:00:11.818Z,2.66
2018-11-26T06:02:39.825Z,2.68
2018-11-26T06:05:08.182Z,2.56
2018-11-26T06:07:36.189Z,2.51
2018-11-26T06:10:04.225Z,2.59
2018-11-26T06:12:32.288Z,2.44
2018-11-26T06:15:00.306Z,2.41
2018-11-26T06:17:28.302Z,2.38
2018-11-26T06:19:56.442Z,2.37
2018-11-26T06:22:24.506Z,2.31
2018-11-26T06:24:52.496Z,2.37
2018-11-26T06:27:20.541Z,2.35
2018-11-26T06:29:48.637Z,2.29
2018-11-26T06:32:16.641Z,2.30
2018-11-26T06:34:44.640Z,2.28
2018-11-26T06:37:12.646Z,2.21
2018-11-26T06:39:40.841Z,2.20
2018-11-26T06:42:08.841Z,2.11
2018-11-26T06:44:36.834Z,2.05
2018-11-26T06:47:05.171Z,2.02
2018-11-26T06:49:33.190Z,2.03
2018-11-26T06:52:01.255Z,2.10
2018-11-26T06:54:29.254Z,2.16
2018-11-26T06:56:57.257Z,2.10
2018-11-26T06:59:25.245Z,2.02
2018-11-26T07:01:53.258Z,2.06
2018-11-26T07:04:21.281Z,2.11
2018-11-26T07:06:49.292Z,2.04
2018-11-26T07:09:17.274Z,1.93
2018-11-26T07:11:45.275Z,1.91
2018-11-26T07:14:13.263Z,1.99
2018-11-26T07:16:41.256Z,1.94
2018-11-26T07:19:09.242Z,1.98
2018-11-26T07:21:37.244Z,1.98
2018-11-26T07:24:05.442Z,2.03
2018-11-26T07:26:33.495Z,2.04
2018-11-26T07:29:01.501Z,2.04
2018-11-26T07:31:29.743Z,1.94
2018-11-26T07:33:57.747Z,1.93
2018-11-26T07:36:25.745Z,2.06
2018-11-26T07:38:53.737Z,1.99
2018-11-26T07:41:21.726Z,2.06
2018-11-26T07:43:49.714Z,2.13
2018-11-26T07:46:17.709Z,2.11
2018-11-26T07:48:45.757Z,2.24
2018-11-26T07:51:13.781Z,2.29
2018-11-26T07:53:41.814Z,2.41
2018-11-26T07:56:09.822Z,2.50
2018-11-26T07:58:37.839Z,2.61
2018-11-26T08:01:06.306Z,2.71
2018-11-26T08:03:34.594Z,2.76
2018-11-26T08:06:08.745Z,2.96
2018-11-26T08:08:30.596Z,3.17
2018-11-26T08:10:58.602Z,3.30
2018-11-26T08:13:26.600Z,3.10
2018-11-26T08:15:54.614Z,3.25
2018-11-26T08:18:22.629Z,3.41
2018-11-26T08:20:50.687Z,3.39
2018-11-26T08:23:18.691Z,3.36
2018-11-26T08:25:46.690Z,3.21
2018-11-26T08:28:14.681Z,3.20
2018-11-26T08:30:42.677Z,3.18
2018-11-26T08:33:10.669Z,3.56
2018-11-26T08:35:38.671Z,3.92
2018-11-26T08:38:07.588Z,4.25
2018-11-26T08:40:40.983Z,4.55
2018-11-26T08:43:14.585Z,4.59
2018-11-26T08:45:51.186Z,4.69
2018-11-26T08:48:24.731Z,4.77
2018-11-26T08:50:52.728Z,4.70
2018-11-26T08:53:20.760Z,4.86
2018-11-26T08:55:48.810Z,5.09
2018-11-26T08:58:16.801Z,5.51
2018-11-26T09:00:44.801Z,5.94
2018-11-26T09:03:18.311Z,6.10
2018-11-26T09:05:50.472Z,6.20
2018-11-26T09:08:18.605Z,6.28
2018-11-26T09:10:46.599Z,6.59
2018-11-26T09:13:14.609Z,6.70
2018-11-26T09:15:42.595Z,6.55
2018-11-26T09:18:10.585Z,6.10
2018-11-26T09:20:38.565Z,5.79
2018-11-26T09:23:06.851Z,5.62
2018-11-26T09:25:34.858Z,6.04
2018-11-26T09:28:02.859Z,6.35
2018-11-26T09:30:31.090Z,6.32
2018-11-26T09:32:58.944Z,6.38
2018-11-26T09:35:27.006Z,6.41
2018-11-26T09:37:55.069Z,6.56
2018-11-26T09:40:23.090Z,7.22
2018-11-26T09:42:51.070Z,7.17
2018-11-26T09:45:19.073Z,7.30
2018-11-26T09:47:47.107Z,7.10
2018-11-26T09:50:16.249Z,6.58
2018-11-26T09:52:44.232Z,6.03
2018-11-26T09:55:13.010Z,5.73
2018-11-26T09:57:41.074Z,5.82
2018-11-26T10:00:12.542Z,5.62
2018-11-26T10:02:41.076Z,5.40
2018-11-26T10:05:12.467Z,5.18
2018-11-26T10:07:40.474Z,5.38
2018-11-26T10:10:09.964Z,5.15
2018-11-26T10:12:38.305Z,5.04
2018-11-26T10:15:16.257Z,4.77
2018-11-26T10:17:44.255Z,4.60
2018-11-26T10:20:12.541Z,4.38
2018-11-26T10:22:40.925Z,4.29
2018-11-26T10:25:13.158Z,4.10
2018-11-26T10:27:41.325Z,4.11
2018-11-26T10:30:11.252Z,4.15
2018-11-26T10:32:39.510Z,4.32
2018-11-26T10:35:09.761Z,4.34
2018-11-26T10:37:37.974Z,4.38
2018-11-26T10:40:09.119Z,4.54
2018-11-26T10:42:37.139Z,4.58
2018-11-26T10:45:06.230Z,4.71
2018-11-26T10:47:34.209Z,4.63
2018-11-26T10:50:02.201Z,4.67
2018-11-26T10:52:30.285Z,4.69
2018-11-26T10:54:58.290Z,4.78
2018-11-26T10:57:26.298Z,4.63
2018-11-26T10:59:54.291Z,4.62
2018-11-26T11:02:27.646Z,4.81
2018-11-26T11:04:55.649Z,4.83
2018-11-26T11:07:23.658Z,4.74
2018-11-26T11:09:51.654Z,4.56
2018-11-26T11:12:19.657Z,4.55
2018-11-26T11:14:47.649Z,4.48
2018-11-26T11:17:15.698Z,4.63
2018-11-26T11:19:43.697Z,4.80
2018-11-26T11:22:12.543Z,4.70
2018-11-26T11:24:40.537Z,4.82
2018-11-26T11:27:08.540Z,4.96
2018-11-26T11:29:36.834Z,5.05
2018-11-26T11:32:04.569Z,4.84
2018-11-26T11:34:32.563Z,4.79
2018-11-26T11:37:00.595Z,4.87
2018-11-26T11:39:28.605Z,4.77
2018-11-26T11:41:56.595Z,4.86
2018-11-26T11:44:24.595Z,5.01
2018-11-26T11:46:52.751Z,4.93
2018-11-26T11:49:20.755Z,5.05
2018-11-26T11:51:48.763Z,4.96
2018-11-26T11:54:16.761Z,4.95
2018-11-26T11:56:44.786Z,4.95
2018-11-26T11:59:12.779Z,4.83
2018-11-26T12:01:40.779Z,4.84
2018-11-26T12:04:08.799Z,4.87
2018-11-26T12:06:36.787Z,4.85
2018-11-26T12:09:07.982Z,4.98
2018-11-26T12:11:36.083Z,4.93
2018-11-26T12:14:04.083Z,4.85
2018-11-26T12:16:32.100Z,5.04
2018-11-26T12:19:00.264Z,5.10
2018-11-26T12:21:28.262Z,5.27
2018-11-26T12:23:56.374Z,5.17
2018-11-26T12:26:24.397Z,5.12
2018-11-26T12:28:52.552Z,5.07
2018-11-26T12:31:20.618Z,5.21
2018-11-26T12:33:48.649Z,5.16
2018-11-26T12:36:16.682Z,5.46
2018-11-26T12:38:44.726Z,5.54
2018-11-26T12:41:12.731Z,5.50
2018-11-26T12:43:40.755Z,5.50
2018-11-26T12:46:08.859Z,5.47
2018-11-26T12:48:36.847Z,5.68
2018-11-26T12:51:05.183Z,5.73
2018-11-26T12:53:33.159Z,5.88
2018-11-26T12:56:01.130Z,5.89
2018-11-26T12:58:29.134Z,5.82
2018-11-26T13:00:57.125Z,5.76
2018-11-26T13:03:25.117Z,5.70
2018-11-26T13:05:53.100Z,5.59
2018-11-26T13:08:21.099Z,5.70
2018-11-26T13:10:49.143Z,5.47
2018-11-26T13:13:17.290Z,5.54
2018-11-26T13:15:45.326Z,5.70
2018-11-26T13:18:13.334Z,5.54
2018-11-26T13:20:41.350Z,5.63
2018-11-26T13:23:09.904Z,5.52
2018-11-26T13:25:41.802Z,5.66
2018-11-26T13:28:07.835Z,5.81
2018-11-26T13:30:41.359Z,5.61
2018-11-26T13:33:11.891Z,5.75
2018-11-26T13:35:39.883Z,5.94
2018-11-26T13:38:08.633Z,5.96
2018-11-26T13:40:36.633Z,5.93
2018-11-26T13:43:07.639Z,5.78
2018-11-26T13:45:37.191Z,5.71
2018-11-26T13:48:07.154Z,5.89
2018-11-26T13:50:36.871Z,5.94
2018-11-26T13:53:05.369Z,6.01
2018-11-26T13:55:33.342Z,5.96
2018-11-26T13:58:01.458Z,6.02
2018-11-26T14:00:29.440Z,6.14
2018-11-26T14:02:57.446Z,6.08
2018-11-26T14:05:25.459Z,6.01
2018-11-26T14:07:53.511Z,6.33
2018-11-26T14:10:23.667Z,6.00
2018-11-26T14:13:01.160Z,6.05
2018-11-26T14:15:29.203Z,6.20
2018-11-26T14:17:57.207Z,6.17
2018-11-26T14:20:25.252Z,6.14
2018-11-26T14:22:53.232Z,6.20
2018-11-26T14:25:21.216Z,6.14
2018-11-26T14:27:49.432Z,5.86
2018-11-26T14:30:22.671Z,5.85
2018-11-26T14:32:50.675Z,5.81
2018-11-26T14:35:18.662Z,5.81
2018-11-26T14:37:48.895Z,5.90
2018-11-26T14:40:28.915Z,5.70
2018-11-26T14:42:56.934Z,5.64
2018-11-26T14:45:24.973Z,5.71
2018-11-26T14:47:53.079Z,5.82
2018-11-26T14:50:21.059Z,5.79
2018-11-26T14:52:49.699Z,5.88
2018-11-26T14:55:20.923Z,5.85
2018-11-26T14:57:48.937Z,6.00
2018-11-26T15:00:17.995Z,6.00
2018-11-26T15:02:46.000Z,5.86
2018-11-26T15:05:14.254Z,5.84
2018-11-26T15:07:42.251Z,5.82
2018-11-26T15:10:17.078Z,5.75
2018-11-26T15:12:45.501Z,5.63
2018-11-26T15:15:18.911Z,5.62
2018-11-26T15:17:46.931Z,5.49
2018-11-26T15:20:17.075Z,5.56
2018-11-26T15:22:45.077Z,5.42
2018-11-26T15:25:14.191Z,5.50
2018-11-26T15:27:42.283Z,5.50
2018-11-26T15:30:12.432Z,5.40
2018-11-26T15:32:46.970Z,5.30
2018-11-26T15:35:16.091Z,5.13
2018-11-26T15:37:44.282Z,5.19
2018-11-26T15:40:13.235Z,5.26
2018-11-26T15:42:41.267Z,5.18
2018-11-26T15:45:40.242Z,5.26
2018-11-26T15:48:09.815Z,5.32
2018-11-26T15:50:37.835Z,5.35
2018-11-26T15:53:06.864Z,5.20
2018-11-26T15:55:34.875Z,5.21
2018-11-26T15:58:02.866Z,5.25
2018-11-26T16:00:30.865Z,5.27
2018-11-26T16:02:58.932Z,5.20
2018-11-26T16:05:30.169Z,5.32
2018-11-26T16:08:02.797Z,5.26
2018-11-26T16:10:30.798Z,5.43
2018-11-26T16:13:00.243Z,5.31
2018-11-26T16:15:29.730Z,5.35
2018-11-26T16:17:59.287Z,5.41
2018-11-26T16:20:27.930Z,5.40
2018-11-26T16:22:56.847Z,5.42
2018-11-26T16:25:25.207Z,5.46
2018-11-26T16:27:53.222Z,5.41
2018-11-26T16:30:21.219Z,5.39
2018-11-26T16:32:53.697Z,5.38
2018-11-26T16:35:28.138Z,5.37
2018-11-26T16:37:56.131Z,5.29
2018-11-26T16:40:24.135Z,5.19
2018-11-26T16:42:52.187Z,5.26
2018-11-26T16:45:21.368Z,5.15
2018-11-26T16:47:50.532Z,5.05
2018-11-26T16:50:19.644Z,5.11
2018-11-26T16:52:47.731Z,5.04
2018-11-26T16:55:16.523Z,4.95
2018-11-26T16:57:44.523Z,5.02
2018-11-26T17:00:17.403Z,4.93
2018-11-26T17:02:46.158Z,4.97
2018-11-26T17:05:16.420Z,4.87
2018-11-26T17:07:44.467Z,4.90
2018-11-26T17:10:12.550Z,4.94
2018-11-26T17:12:41.047Z,4.99
2018-11-26T17:15:11.804Z,5.04
2018-11-26T17:17:39.815Z,4.94
2018-11-26T17:20:09.587Z,5.04
2018-11-26T17:22:37.603Z,5.03
2018-11-26T17:25:07.215Z,5.03
2018-11-26T17:27:35.228Z,5.04
2018-11-26T17:30:04.686Z,5.16
2018-11-26T17:32:32.734Z,4.97
2018-11-26T17:35:00.763Z,5.06
2018-11-26T17:37:28.768Z,5.04
2018-11-26T17:39:56.787Z,5.06
2018-11-26T17:42:24.802Z,5.07
2018-11-26T17:44:52.824Z,5.06
2018-11-26T17:47:20.823Z,4.99
2018-11-26T17:49:48.845Z,5.01
2018-11-26T17:52:16.832Z,5.00
2018-11-26T17:54:44.883Z,5.05
2018-11-26T17:57:12.874Z,5.00
2018-11-26T17:59:40.914Z,4.98
2018-11-26T18:02:08.914Z,4.89
2018-11-26T18:04:36.916Z,4.86
2018-11-26T18:07:04.918Z,5.01
2018-11-26T18:09:32.999Z,4.91
2018-11-26T18:12:01.075Z,4.78
2018-11-26T18:14:29.067Z,4.87
2018-11-26T18:16:57.194Z,4.80
2018-11-26T18:19:25.249Z,4.81
2018-11-26T18:21:53.255Z,4.92
2018-11-26T18:24:21.274Z,4.82
2018-11-26T18:26:49.321Z,4.77
2018-11-26T18:29:17.365Z,4.86
2018-11-26T18:31:45.507Z,4.90
2018-11-26T18:34:13.500Z,4.99
2018-11-26T18:36:41.574Z,4.86
2018-11-26T18:39:10.419Z,4.95
2018-11-26T18:41:38.455Z,4.99
2018-11-26T18:44:06.870Z,4.83
2018-11-26T18:46:34.913Z,4.80
2018-11-26T18:49:03.000Z,4.83
2018-11-26T18:51:31.199Z,4.84
2018-11-26T18:53:59.193Z,4.77
2018-11-26T18:56:27.227Z,4.76
2018-11-26T18:58:55.282Z,4.67
2018-11-26T19:01:23.306Z,4.65
2018-11-26T19:03:51.367Z,4.64
2018-11-26T19:06:19.428Z,4.61
2018-11-26T19:08:47.424Z,4.50
2018-11-26T19:11:16.834Z,4.55
2018-11-26T19:13:50.975Z,4.55
2018-11-26T19:16:21.399Z,4.60
2018-11-26T19:18:49.411Z,4.45
2018-11-26T19:21:17.495Z,4.44
2018-11-26T19:23:45.773Z,4.53
2018-11-26T19:26:13.765Z,4.42
2018-11-26T19:28:41.757Z,4.30
2018-11-26T19:31:09.804Z,4.16
2018-11-26T19:33:37.796Z,4.28
2018-11-26T19:36:06.584Z,4.40
2018-11-26T19:38:34.633Z,4.40
2018-11-26T19:41:02.773Z,4.36
2018-11-26T19:43:30.978Z,4.45
2018-11-26T19:45:58.986Z,4.41
2018-11-26T19:48:27.015Z,4.38
2018-11-26T19:50:55.060Z,4.33
2018-11-26T19:53:23.067Z,4.31
2018-11-26T19:55:51.537Z,4.24
2018-11-26T19:58:19.170Z,4.28
2018-11-26T20:00:47.247Z,4.34
2018-11-26T20:03:19.921Z,4.38
2018-11-26T20:05:55.907Z,4.41
2018-11-26T20:08:23.900Z,4.29
2018-11-26T20:10:52.227Z,4.33
2018-11-26T20:13:20.294Z,4.25
2018-11-26T20:15:48.316Z,4.12
2018-11-26T20:18:16.368Z,4.14
2018-11-26T20:20:44.537Z,4.15
2018-11-26T20:23:12.532Z,4.23
2018-11-26T20:25:41.697Z,4.39
2018-11-26T20:28:09.778Z,4.31
2018-11-26T20:30:37.941Z,4.29
2018-11-26T20:33:06.640Z,4.30
2018-11-26T20:35:34.850Z,4.18
2018-11-26T20:38:03.971Z,3.92
2018-11-26T20:40:32.007Z,3.98
2018-11-26T20:43:00.035Z,4.01
2018-11-26T20:45:28.129Z,4.15
2018-11-26T20:47:56.242Z,4.13
2018-11-26T20:50:26.362Z,4.19
2018-11-26T20:52:54.382Z,4.13
2018-11-26T20:55:23.653Z,4.17
2018-11-26T20:57:52.720Z,4.15
2018-11-26T21:00:21.906Z,4.11
2018-11-26T21:02:51.282Z,3.80
2018-11-26T21:05:19.344Z,3.74
2018-11-26T21:07:47.369Z,3.74
2018-11-26T21:10:16.168Z,3.95
2018-11-26T21:12:44.206Z,3.89
2018-11-26T21:15:13.567Z,3.87
2018-11-26T21:17:42.365Z,3.83
2018-11-26T21:20:15.220Z,3.87
2018-11-26T21:22:43.226Z,3.95
2018-11-26T21:25:13.937Z,3.90
2018-11-26T21:27:41.945Z,3.84
2018-11-26T21:30:16.933Z,3.76
2018-11-26T21:32:45.041Z,3.72
2018-11-26T21:35:15.210Z,3.71
2018-11-26T21:37:44.522Z,3.68
2018-11-26T21:40:13.623Z,3.76
2018-11-26T21:42:42.956Z,3.50
2018-11-26T21:45:13.499Z,3.30
2018-11-26T21:47:41.510Z,3.41
2018-11-26T21:50:11.093Z,3.20
2018-11-26T21:52:39.223Z,3.35
2018-11-26T21:55:15.911Z,3.41
2018-11-26T21:57:43.973Z,3.36
2018-11-26T22:00:21.088Z,3.33
2018-11-26T22:02:49.279Z,3.22
2018-11-26T22:05:17.288Z,3.18
2018-11-26T22:07:45.291Z,3.10
2018-11-26T22:10:14.403Z,2.96
2018-11-26T22:12:43.323Z,2.88
2018-11-26T22:15:12.527Z,3.05
2018-11-26T22:17:40.758Z,3.00
2018-11-26T22:20:11.427Z,3.04
2018-11-26T22:22:39.451Z,3.15
2018-11-26T22:25:08.839Z,3.18
2018-11-26T22:27:36.968Z,3.14
2018-11-26T22:30:09.230Z,3.21
2018-11-26T22:32:37.225Z,3.02
2018-11-26T22:35:05.767Z,2.89
2018-11-26T22:37:33.792Z,2.92
2018-11-26T22:40:01.862Z,2.95
2018-11-26T22:42:29.879Z,2.83
2018-11-26T22:44:58.112Z,2.77
2018-11-26T22:47:26.131Z,2.78
2018-11-26T22:49:54.218Z,2.81
2018-11-26T22:52:22.207Z,2.74
2018-11-26T22:54:51.231Z,2.78
2018-11-26T22:57:19.223Z,2.76
2018-11-26T22:59:47.274Z,2.70
2018-11-26T23:02:15.275Z,2.45
2018-11-26T23:04:43.402Z,2.49
2018-11-26T23:07:11.425Z,2.46
2018-11-26T23:09:40.565Z,2.40
2018-11-26T23:12:08.575Z,2.53
2018-11-26T23:14:36.588Z,2.34
2018-11-26T23:17:04.596Z,2.53
2018-11-26T23:19:32.640Z,2.36
2018-11-26T23:22:00.622Z,2.34
2018-11-26T23:24:28.682Z,2.37
2018-11-26T23:26:56.731Z,2.34
2018-11-26T23:29:24.723Z,2.30
2018-11-26T23:31:52.785Z,2.37
2018-11-26T23:34:20.775Z,2.45
2018-11-26T23:36:48.776Z,2.49
2018-11-26T23:39:16.876Z,2.54
2018-11-26T23:41:44.917Z,2.42
2018-11-26T23:44:12.895Z,2.36
2018-11-26T23:46:40.955Z,2.45
2018-11-26T23:49:08.963Z,2.41
2018-11-26T23:51:36.963Z,2.55
2018-11-26T23:54:05.037Z,2.51
2018-11-26T23:56:33.042Z,2.55
2018-11-26T23:59:01.134Z,2.47
